sensor_id;sensor_type;location;lat;lon;timestamp;P1;durP1;ratioP1;P2;durP2;ratioP2
15480;SDS011;7842;50.904;6.670;2023-05-23T00:00:42;11.67;;;9.73;;
15480;SDS011;7842;50.904;6.670;2023-05-23T00:03:08;11.80;;;10.13;;
15480;SDS011;7842;50.904;6.670;2023-05-23T00:05:34;13.63;;;10.07;;
15480;SDS011;7842;50.904;6.670;2023-05-23T00:08:00;12.02;;;10.48;;
15480;SDS011;7842;50.904;6.670;2023-05-23T00:10:26;13.57;;;10.30;;
15480;SDS011;7842;50.904;6.670;2023-05-23T00:12:52;13.75;;;10.15;;
15480;SDS011;7842;50.904;6.670;2023-05-23T00:15:17;14.85;;;11.07;;
15480;SDS011;7842;50.904;6.670;2023-05-23T00:17:43;13.90;;;11.27;;
15480;SDS011;7842;50.904;6.670;2023-05-23T00:20:09;13.23;;;11.15;;
15480;SDS011;7842;50.904;6.670;2023-05-23T00:22:38;12.70;;;11.03;;
15480;SDS011;7842;50.904;6.670;2023-05-23T00:25:07;15.10;;;11.25;;
15480;SDS011;7842;50.904;6.670;2023-05-23T00:27:33;15.20;;;12.13;;
15480;SDS011;7842;50.904;6.670;2023-05-23T00:30:02;14.55;;;11.85;;
15480;SDS011;7842;50.904;6.670;2023-05-23T00:32:28;13.35;;;11.73;;
15480;SDS011;7842;50.904;6.670;2023-05-23T00:34:54;14.50;;;11.83;;
15480;SDS011;7842;50.904;6.670;2023-05-23T00:37:20;14.93;;;12.25;;
15480;SDS011;7842;50.904;6.670;2023-05-23T00:39:46;15.13;;;12.85;;
15480;SDS011;7842;50.904;6.670;2023-05-23T00:42:12;15.05;;;12.48;;
15480;SDS011;7842;50.904;6.670;2023-05-23T00:44:38;15.65;;;12.95;;
15480;SDS011;7842;50.904;6.670;2023-05-23T00:47:04;16.75;;;12.50;;
15480;SDS011;7842;50.904;6.670;2023-05-23T00:49:31;16.23;;;12.70;;
15480;SDS011;7842;50.904;6.670;2023-05-23T00:51:57;16.98;;;12.60;;
15480;SDS011;7842;50.904;6.670;2023-05-23T00:54:24;15.50;;;13.18;;
15480;SDS011;7842;50.904;6.670;2023-05-23T00:56:52;15.75;;;13.18;;
15480;SDS011;7842;50.904;6.670;2023-05-23T00:59:19;16.00;;;13.37;;
15480;SDS011;7842;50.904;6.670;2023-05-23T01:01:47;15.82;;;13.02;;
15480;SDS011;7842;50.904;6.670;2023-05-23T01:04:15;15.67;;;12.90;;
15480;SDS011;7842;50.904;6.670;2023-05-23T01:06:41;16.67;;;13.35;;
15480;SDS011;7842;50.904;6.670;2023-05-23T01:09:11;18.00;;;14.13;;
15480;SDS011;7842;50.904;6.670;2023-05-23T01:11:42;16.60;;;13.98;;
15480;SDS011;7842;50.904;6.670;2023-05-23T01:14:16;16.98;;;13.50;;
15480;SDS011;7842;50.904;6.670;2023-05-23T01:16:47;17.10;;;13.90;;
15480;SDS011;7842;50.904;6.670;2023-05-23T01:22:11;17.38;;;14.48;;
15480;SDS011;7842;50.904;6.670;2023-05-23T01:30:18;18.27;;;14.82;;
15480;SDS011;7842;50.904;6.670;2023-05-23T01:32:45;18.05;;;14.98;;
15480;SDS011;7842;50.904;6.670;2023-05-23T01:35:13;17.50;;;14.50;;
15480;SDS011;7842;50.904;6.670;2023-05-23T01:37:45;17.00;;;14.25;;
15480;SDS011;7842;50.904;6.670;2023-05-23T01:40:11;17.90;;;15.27;;
15480;SDS011;7842;50.904;6.670;2023-05-23T01:42:36;18.67;;;15.33;;
15480;SDS011;7842;50.904;6.670;2023-05-23T01:45:02;18.40;;;15.00;;
15480;SDS011;7842;50.904;6.670;2023-05-23T01:47:28;19.67;;;15.10;;
15480;SDS011;7842;50.904;6.670;2023-05-23T01:49:54;18.07;;;14.67;;
15480;SDS011;7842;50.904;6.670;2023-05-23T01:52:21;17.63;;;14.50;;
15480;SDS011;7842;50.904;6.670;2023-05-23T01:54:47;15.83;;;13.47;;
15480;SDS011;7842;50.904;6.670;2023-05-23T01:57:15;15.20;;;12.57;;
15480;SDS011;7842;50.904;6.670;2023-05-23T01:59:41;13.00;;;11.25;;
15480;SDS011;7842;50.904;6.670;2023-05-23T02:02:06;12.95;;;10.52;;
15480;SDS011;7842;50.904;6.670;2023-05-23T02:04:32;12.30;;;10.30;;
15480;SDS011;7842;50.904;6.670;2023-05-23T02:06:58;12.18;;;10.00;;
15480;SDS011;7842;50.904;6.670;2023-05-23T02:09:24;11.67;;;9.50;;
15480;SDS011;7842;50.904;6.670;2023-05-23T02:11:52;10.25;;;9.18;;
15480;SDS011;7842;50.904;6.670;2023-05-23T02:14:20;11.38;;;8.60;;
15480;SDS011;7842;50.904;6.670;2023-05-23T02:16:45;11.27;;;9.88;;
15480;SDS011;7842;50.904;6.670;2023-05-23T02:19:11;10.60;;;9.10;;
15480;SDS011;7842;50.904;6.670;2023-05-23T02:21:36;9.57;;;8.03;;
15480;SDS011;7842;50.904;6.670;2023-05-23T02:24:02;9.97;;;7.67;;
15480;SDS011;7842;50.904;6.670;2023-05-23T02:26:28;9.45;;;7.68;;
15480;SDS011;7842;50.904;6.670;2023-05-23T02:28:54;9.65;;;8.05;;
15480;SDS011;7842;50.904;6.670;2023-05-23T02:31:19;8.70;;;7.60;;
15480;SDS011;7842;50.904;6.670;2023-05-23T02:33:45;9.90;;;8.07;;
15480;SDS011;7842;50.904;6.670;2023-05-23T02:36:11;8.52;;;7.63;;
15480;SDS011;7842;50.904;6.670;2023-05-23T02:38:36;8.40;;;7.60;;
15480;SDS011;7842;50.904;6.670;2023-05-23T02:41:02;9.57;;;8.10;;
15480;SDS011;7842;50.904;6.670;2023-05-23T02:43:28;9.98;;;8.30;;
15480;SDS011;7842;50.904;6.670;2023-05-23T02:45:54;10.43;;;8.27;;
15480;SDS011;7842;50.904;6.670;2023-05-23T02:48:20;8.83;;;7.93;;
15480;SDS011;7842;50.904;6.670;2023-05-23T02:50:45;10.35;;;8.65;;
15480;SDS011;7842;50.904;6.670;2023-05-23T02:53:11;9.02;;;8.13;;
15480;SDS011;7842;50.904;6.670;2023-05-23T02:55:36;9.87;;;7.97;;
15480;SDS011;7842;50.904;6.670;2023-05-23T02:58:02;9.30;;;8.25;;
15480;SDS011;7842;50.904;6.670;2023-05-23T03:00:29;9.75;;;7.80;;
15480;SDS011;7842;50.904;6.670;2023-05-23T03:02:56;9.50;;;8.50;;
15480;SDS011;7842;50.904;6.670;2023-05-23T03:05:22;9.93;;;8.43;;
15480;SDS011;7842;50.904;6.670;2023-05-23T03:07:48;10.20;;;8.32;;
15480;SDS011;7842;50.904;6.670;2023-05-23T03:10:15;10.65;;;8.40;;
15480;SDS011;7842;50.904;6.670;2023-05-23T03:12:41;9.90;;;8.30;;
15480;SDS011;7842;50.904;6.670;2023-05-23T03:15:08;10.20;;;8.57;;
15480;SDS011;7842;50.904;6.670;2023-05-23T03:17:34;9.10;;;8.13;;
15480;SDS011;7842;50.904;6.670;2023-05-23T03:20:00;10.18;;;8.13;;
15480;SDS011;7842;50.904;6.670;2023-05-23T03:22:27;10.83;;;8.47;;
15480;SDS011;7842;50.904;6.670;2023-05-23T03:24:53;9.57;;;7.95;;
15480;SDS011;7842;50.904;6.670;2023-05-23T03:27:19;10.68;;;8.30;;
15480;SDS011;7842;50.904;6.670;2023-05-23T03:29:45;10.80;;;8.20;;
15480;SDS011;7842;50.904;6.670;2023-05-23T03:32:12;11.23;;;8.37;;
15480;SDS011;7842;50.904;6.670;2023-05-23T03:34:38;9.73;;;8.30;;
15480;SDS011;7842;50.904;6.670;2023-05-23T03:37:03;12.67;;;9.57;;
15480;SDS011;7842;50.904;6.670;2023-05-23T03:39:29;12.73;;;9.43;;
15480;SDS011;7842;50.904;6.670;2023-05-23T03:41:55;11.77;;;9.40;;
15480;SDS011;7842;50.904;6.670;2023-05-23T03:44:21;11.85;;;10.48;;
15480;SDS011;7842;50.904;6.670;2023-05-23T03:46:47;12.95;;;10.95;;
15480;SDS011;7842;50.904;6.670;2023-05-23T03:49:13;15.43;;;11.50;;
15480;SDS011;7842;50.904;6.670;2023-05-23T03:51:39;14.82;;;11.50;;
15480;SDS011;7842;50.904;6.670;2023-05-23T03:54:05;13.75;;;11.80;;
15480;SDS011;7842;50.904;6.670;2023-05-23T03:56:31;14.48;;;12.40;;
15480;SDS011;7842;50.904;6.670;2023-05-23T03:58:56;14.93;;;12.50;;
15480;SDS011;7842;50.904;6.670;2023-05-23T04:01:22;15.50;;;12.80;;
15480;SDS011;7842;50.904;6.670;2023-05-23T04:03:48;14.55;;;12.25;;
15480;SDS011;7842;50.904;6.670;2023-05-23T04:06:15;14.63;;;12.00;;
15480;SDS011;7842;50.904;6.670;2023-05-23T04:08:42;15.25;;;12.60;;
15480;SDS011;7842;50.904;6.670;2023-05-23T04:11:07;14.33;;;11.73;;
15480;SDS011;7842;50.904;6.670;2023-05-23T04:13:33;16.70;;;11.88;;
15480;SDS011;7842;50.904;6.670;2023-05-23T04:15:59;13.18;;;10.35;;
15480;SDS011;7842;50.904;6.670;2023-05-23T04:18:29;12.65;;;10.70;;
15480;SDS011;7842;50.904;6.670;2023-05-23T04:20:57;13.70;;;10.45;;
15480;SDS011;7842;50.904;6.670;2023-05-23T04:23:23;12.10;;;9.90;;
15480;SDS011;7842;50.904;6.670;2023-05-23T04:25:49;12.57;;;9.50;;
15480;SDS011;7842;50.904;6.670;2023-05-23T04:28:15;12.38;;;9.30;;
15480;SDS011;7842;50.904;6.670;2023-05-23T04:30:42;12.18;;;9.10;;
15480;SDS011;7842;50.904;6.670;2023-05-23T04:33:08;12.48;;;8.93;;
15480;SDS011;7842;50.904;6.670;2023-05-23T04:35:34;11.95;;;8.75;;
15480;SDS011;7842;50.904;6.670;2023-05-23T04:38:03;10.52;;;8.50;;
15480;SDS011;7842;50.904;6.670;2023-05-23T04:40:29;10.82;;;8.57;;
15480;SDS011;7842;50.904;6.670;2023-05-23T04:42:55;11.05;;;8.57;;
15480;SDS011;7842;50.904;6.670;2023-05-23T04:45:21;10.98;;;8.98;;
15480;SDS011;7842;50.904;6.670;2023-05-23T04:47:47;11.05;;;9.10;;
15480;SDS011;7842;50.904;6.670;2023-05-23T04:50:13;12.33;;;9.17;;
15480;SDS011;7842;50.904;6.670;2023-05-23T04:52:40;12.87;;;9.20;;
15480;SDS011;7842;50.904;6.670;2023-05-23T04:55:06;12.30;;;9.20;;
15480;SDS011;7842;50.904;6.670;2023-05-23T04:57:33;11.75;;;9.32;;
15480;SDS011;7842;50.904;6.670;2023-05-23T04:59:59;12.68;;;9.63;;
15480;SDS011;7842;50.904;6.670;2023-05-23T05:02:25;11.80;;;9.10;;
15480;SDS011;7842;50.904;6.670;2023-05-23T05:04:51;14.45;;;9.90;;
15480;SDS011;7842;50.904;6.670;2023-05-23T05:07:17;14.38;;;9.55;;
15480;SDS011;7842;50.904;6.670;2023-05-23T05:09:43;15.35;;;9.77;;
15480;SDS011;7842;50.904;6.670;2023-05-23T05:12:09;12.30;;;9.80;;
15480;SDS011;7842;50.904;6.670;2023-05-23T05:14:35;11.40;;;9.00;;
15480;SDS011;7842;50.904;6.670;2023-05-23T05:17:01;12.27;;;9.87;;
15480;SDS011;7842;50.904;6.670;2023-05-23T05:19:28;13.27;;;9.45;;
15480;SDS011;7842;50.904;6.670;2023-05-23T05:21:54;11.95;;;9.60;;
15480;SDS011;7842;50.904;6.670;2023-05-23T05:24:21;11.67;;;9.43;;
15480;SDS011;7842;50.904;6.670;2023-05-23T05:26:47;14.57;;;10.13;;
15480;SDS011;7842;50.904;6.670;2023-05-23T05:29:13;14.88;;;10.25;;
15480;SDS011;7842;50.904;6.670;2023-05-23T05:31:40;12.48;;;9.70;;
15480;SDS011;7842;50.904;6.670;2023-05-23T05:34:07;12.85;;;10.20;;
15480;SDS011;7842;50.904;6.670;2023-05-23T05:36:33;12.77;;;9.75;;
15480;SDS011;7842;50.904;6.670;2023-05-23T05:38:59;12.57;;;10.35;;
15480;SDS011;7842;50.904;6.670;2023-05-23T05:41:26;13.77;;;10.65;;
15480;SDS011;7842;50.904;6.670;2023-05-23T05:43:52;15.93;;;10.40;;
15480;SDS011;7842;50.904;6.670;2023-05-23T05:46:18;12.50;;;10.20;;
15480;SDS011;7842;50.904;6.670;2023-05-23T05:48:44;13.68;;;9.77;;
15480;SDS011;7842;50.904;6.670;2023-05-23T05:51:10;13.97;;;10.20;;
15480;SDS011;7842;50.904;6.670;2023-05-23T05:53:36;13.60;;;9.70;;
15480;SDS011;7842;50.904;6.670;2023-05-23T05:56:01;14.15;;;9.70;;
15480;SDS011;7842;50.904;6.670;2023-05-23T05:58:27;12.63;;;9.65;;
15480;SDS011;7842;50.904;6.670;2023-05-23T06:00:53;13.75;;;9.93;;
15480;SDS011;7842;50.904;6.670;2023-05-23T06:03:20;11.77;;;9.45;;
15480;SDS011;7842;50.904;6.670;2023-05-23T06:05:45;12.77;;;9.60;;
15480;SDS011;7842;50.904;6.670;2023-05-23T06:08:11;12.65;;;9.77;;
15480;SDS011;7842;50.904;6.670;2023-05-23T06:10:37;13.10;;;9.80;;
15480;SDS011;7842;50.904;6.670;2023-05-23T06:13:03;12.38;;;10.13;;
15480;SDS011;7842;50.904;6.670;2023-05-23T06:15:29;13.65;;;10.15;;
15480;SDS011;7842;50.904;6.670;2023-05-23T06:17:55;13.52;;;10.43;;
15480;SDS011;7842;50.904;6.670;2023-05-23T06:20:21;13.20;;;9.90;;
15480;SDS011;7842;50.904;6.670;2023-05-23T06:22:47;13.57;;;9.77;;
15480;SDS011;7842;50.904;6.670;2023-05-23T06:25:13;13.25;;;10.10;;
15480;SDS011;7842;50.904;6.670;2023-05-23T06:27:39;14.20;;;9.48;;
15480;SDS011;7842;50.904;6.670;2023-05-23T06:30:05;15.35;;;10.98;;
15480;SDS011;7842;50.904;6.670;2023-05-23T06:32:31;11.48;;;9.45;;
15480;SDS011;7842;50.904;6.670;2023-05-23T06:34:57;13.10;;;9.60;;
15480;SDS011;7842;50.904;6.670;2023-05-23T06:37:22;13.32;;;9.90;;
15480;SDS011;7842;50.904;6.670;2023-05-23T06:39:48;12.35;;;9.75;;
15480;SDS011;7842;50.904;6.670;2023-05-23T06:42:14;13.05;;;9.07;;
15480;SDS011;7842;50.904;6.670;2023-05-23T06:44:40;12.40;;;8.90;;
15480;SDS011;7842;50.904;6.670;2023-05-23T06:47:06;11.23;;;8.98;;
15480;SDS011;7842;50.904;6.670;2023-05-23T06:49:32;12.13;;;8.93;;
15480;SDS011;7842;50.904;6.670;2023-05-23T06:51:58;11.20;;;8.70;;
15480;SDS011;7842;50.904;6.670;2023-05-23T06:54:24;13.00;;;8.40;;
15480;SDS011;7842;50.904;6.670;2023-05-23T06:56:50;11.48;;;8.57;;
15480;SDS011;7842;50.904;6.670;2023-05-23T06:59:16;12.30;;;8.45;;
15480;SDS011;7842;50.904;6.670;2023-05-23T07:01:42;11.40;;;8.43;;
15480;SDS011;7842;50.904;6.670;2023-05-23T07:04:08;11.53;;;8.00;;
15480;SDS011;7842;50.904;6.670;2023-05-23T07:06:36;11.68;;;8.30;;
15480;SDS011;7842;50.904;6.670;2023-05-23T07:09:03;11.13;;;8.30;;
15480;SDS011;7842;50.904;6.670;2023-05-23T07:11:29;10.68;;;8.48;;
15480;SDS011;7842;50.904;6.670;2023-05-23T07:13:55;10.75;;;7.88;;
15480;SDS011;7842;50.904;6.670;2023-05-23T07:16:21;13.18;;;8.80;;
15480;SDS011;7842;50.904;6.670;2023-05-23T07:18:47;10.07;;;8.10;;
15480;SDS011;7842;50.904;6.670;2023-05-23T07:21:13;10.65;;;7.97;;
15480;SDS011;7842;50.904;6.670;2023-05-23T07:23:39;10.30;;;8.00;;
15480;SDS011;7842;50.904;6.670;2023-05-23T07:26:07;12.10;;;8.32;;
15480;SDS011;7842;50.904;6.670;2023-05-23T07:28:33;9.70;;;8.15;;
15480;SDS011;7842;50.904;6.670;2023-05-23T07:31:00;12.18;;;8.30;;
15480;SDS011;7842;50.904;6.670;2023-05-23T07:33:25;12.47;;;8.27;;
15480;SDS011;7842;50.904;6.670;2023-05-23T07:35:51;12.00;;;8.57;;
15480;SDS011;7842;50.904;6.670;2023-05-23T07:38:16;10.68;;;8.00;;
15480;SDS011;7842;50.904;6.670;2023-05-23T07:40:42;12.93;;;8.88;;
15480;SDS011;7842;50.904;6.670;2023-05-23T07:43:08;14.75;;;10.20;;
15480;SDS011;7842;50.904;6.670;2023-05-23T07:45:34;12.83;;;9.40;;
15480;SDS011;7842;50.904;6.670;2023-05-23T07:47:59;14.25;;;9.73;;
15480;SDS011;7842;50.904;6.670;2023-05-23T07:50:26;14.67;;;9.77;;
15480;SDS011;7842;50.904;6.670;2023-05-23T07:52:52;12.77;;;10.00;;
15480;SDS011;7842;50.904;6.670;2023-05-23T07:55:17;13.57;;;10.10;;
15480;SDS011;7842;50.904;6.670;2023-05-23T07:57:43;12.63;;;10.20;;
15480;SDS011;7842;50.904;6.670;2023-05-23T08:00:09;14.95;;;10.82;;
15480;SDS011;7842;50.904;6.670;2023-05-23T08:02:36;13.70;;;9.30;;
15480;SDS011;7842;50.904;6.670;2023-05-23T08:05:02;13.85;;;10.13;;
15480;SDS011;7842;50.904;6.670;2023-05-23T08:07:28;14.18;;;10.13;;
15480;SDS011;7842;50.904;6.670;2023-05-23T08:09:54;12.70;;;9.20;;
15480;SDS011;7842;50.904;6.670;2023-05-23T08:12:19;13.07;;;10.07;;
15480;SDS011;7842;50.904;6.670;2023-05-23T08:14:45;12.57;;;10.20;;
15480;SDS011;7842;50.904;6.670;2023-05-23T08:17:12;14.38;;;9.90;;
15480;SDS011;7842;50.904;6.670;2023-05-23T08:19:38;15.50;;;10.60;;
15480;SDS011;7842;50.904;6.670;2023-05-23T08:22:04;16.20;;;10.27;;
15480;SDS011;7842;50.904;6.670;2023-05-23T08:24:30;16.15;;;9.88;;
15480;SDS011;7842;50.904;6.670;2023-05-23T08:26:58;15.13;;;10.93;;
15480;SDS011;7842;50.904;6.670;2023-05-23T08:29:24;15.55;;;11.18;;
15480;SDS011;7842;50.904;6.670;2023-05-23T08:31:50;16.05;;;10.98;;
15480;SDS011;7842;50.904;6.670;2023-05-23T08:34:16;17.73;;;11.05;;
15480;SDS011;7842;50.904;6.670;2023-05-23T08:36:42;16.58;;;10.73;;
15480;SDS011;7842;50.904;6.670;2023-05-23T08:39:07;16.27;;;10.97;;
15480;SDS011;7842;50.904;6.670;2023-05-23T08:41:34;15.10;;;10.55;;
15480;SDS011;7842;50.904;6.670;2023-05-23T08:44:00;14.68;;;10.07;;
15480;SDS011;7842;50.904;6.670;2023-05-23T08:46:26;13.13;;;9.67;;
15480;SDS011;7842;50.904;6.670;2023-05-23T08:48:52;14.27;;;10.70;;
15480;SDS011;7842;50.904;6.670;2023-05-23T08:51:24;16.17;;;10.40;;
15480;SDS011;7842;50.904;6.670;2023-05-23T08:53:50;16.08;;;10.07;;
15480;SDS011;7842;50.904;6.670;2023-05-23T08:56:23;15.27;;;10.20;;
15480;SDS011;7842;50.904;6.670;2023-05-23T08:58:52;15.93;;;9.27;;
15480;SDS011;7842;50.904;6.670;2023-05-23T09:01:18;15.02;;;10.43;;
15480;SDS011;7842;50.904;6.670;2023-05-23T09:03:45;16.48;;;11.07;;
15480;SDS011;7842;50.904;6.670;2023-05-23T09:06:14;14.27;;;9.57;;
15480;SDS011;7842;50.904;6.670;2023-05-23T09:08:42;14.02;;;9.40;;
15480;SDS011;7842;50.904;6.670;2023-05-23T09:11:10;13.18;;;8.93;;
15480;SDS011;7842;50.904;6.670;2023-05-23T09:13:37;15.32;;;9.35;;
15480;SDS011;7842;50.904;6.670;2023-05-23T09:16:10;14.38;;;9.52;;
15480;SDS011;7842;50.904;6.670;2023-05-23T09:18:40;15.20;;;9.93;;
15480;SDS011;7842;50.904;6.670;2023-05-23T09:21:07;12.93;;;9.33;;
15480;SDS011;7842;50.904;6.670;2023-05-23T09:23:37;14.57;;;9.57;;
15480;SDS011;7842;50.904;6.670;2023-05-23T09:26:04;14.73;;;9.82;;
15480;SDS011;7842;50.904;6.670;2023-05-23T09:28:34;17.60;;;10.35;;
15480;SDS011;7842;50.904;6.670;2023-05-23T09:31:02;17.48;;;10.68;;
15480;SDS011;7842;50.904;6.670;2023-05-23T09:33:49;14.05;;;9.95;;
15480;SDS011;7842;50.904;6.670;2023-05-23T09:36:15;15.23;;;10.02;;
15480;SDS011;7842;50.904;6.670;2023-05-23T09:38:41;17.60;;;10.48;;
15480;SDS011;7842;50.904;6.670;2023-05-23T09:41:09;16.63;;;10.93;;
15480;SDS011;7842;50.904;6.670;2023-05-23T09:43:59;16.67;;;11.00;;
15480;SDS011;7842;50.904;6.670;2023-05-23T09:46:27;16.05;;;11.00;;
15480;SDS011;7842;50.904;6.670;2023-05-23T09:48:54;18.60;;;10.68;;
15480;SDS011;7842;50.904;6.670;2023-05-23T09:51:21;18.50;;;11.38;;
15480;SDS011;7842;50.904;6.670;2023-05-23T09:53:47;16.55;;;10.63;;
15480;SDS011;7842;50.904;6.670;2023-05-23T09:56:15;18.80;;;10.97;;
15480;SDS011;7842;50.904;6.670;2023-05-23T09:58:46;20.87;;;10.40;;
15480;SDS011;7842;50.904;6.670;2023-05-23T10:01:12;16.67;;;10.88;;
15480;SDS011;7842;50.904;6.670;2023-05-23T10:06:19;16.92;;;10.40;;
15480;SDS011;7842;50.904;6.670;2023-05-23T10:08:49;19.70;;;9.38;;
15480;SDS011;7842;50.904;6.670;2023-05-23T10:14:07;15.43;;;7.82;;
15480;SDS011;7842;50.904;6.670;2023-05-23T10:16:39;13.18;;;8.32;;
15480;SDS011;7842;50.904;6.670;2023-05-23T10:19:24;12.77;;;8.00;;
15480;SDS011;7842;50.904;6.670;2023-05-23T10:21:58;11.35;;;7.55;;
15480;SDS011;7842;50.904;6.670;2023-05-23T10:24:27;10.93;;;7.55;;
15480;SDS011;7842;50.904;6.670;2023-05-23T10:26:53;15.07;;;7.97;;
15480;SDS011;7842;50.904;6.670;2023-05-23T10:29:20;12.90;;;8.15;;
15480;SDS011;7842;50.904;6.670;2023-05-23T10:31:49;12.02;;;8.13;;
15480;SDS011;7842;50.904;6.670;2023-05-23T10:34:20;13.13;;;8.10;;
15480;SDS011;7842;50.904;6.670;2023-05-23T10:37:15;15.33;;;8.80;;
15480;SDS011;7842;50.904;6.670;2023-05-23T10:45:15;13.43;;;8.63;;
15480;SDS011;7842;50.904;6.670;2023-05-23T10:47:48;13.15;;;8.30;;
15480;SDS011;7842;50.904;6.670;2023-05-23T10:50:29;13.30;;;8.45;;
15480;SDS011;7842;50.904;6.670;2023-05-23T10:53:00;13.18;;;7.93;;
15480;SDS011;7842;50.904;6.670;2023-05-23T10:55:30;12.73;;;7.43;;
15480;SDS011;7842;50.904;6.670;2023-05-23T10:58:17;11.60;;;7.38;;
15480;SDS011;7842;50.904;6.670;2023-05-23T11:00:53;10.48;;;7.00;;
15480;SDS011;7842;50.904;6.670;2023-05-23T11:06:28;8.80;;;6.65;;
15480;SDS011;7842;50.904;6.670;2023-05-23T11:09:05;9.73;;;6.70;;
15480;SDS011;7842;50.904;6.670;2023-05-23T11:11:50;9.70;;;6.35;;
15480;SDS011;7842;50.904;6.670;2023-05-23T11:14:19;8.13;;;6.05;;
15480;SDS011;7842;50.904;6.670;2023-05-23T11:16:56;10.05;;;6.47;;
15480;SDS011;7842;50.904;6.670;2023-05-23T11:19:25;9.43;;;6.07;;
15480;SDS011;7842;50.904;6.670;2023-05-23T11:21:59;9.05;;;6.15;;
15480;SDS011;7842;50.904;6.670;2023-05-23T11:30:06;8.57;;;5.80;;
15480;SDS011;7842;50.904;6.670;2023-05-23T11:32:34;7.47;;;5.75;;
15480;SDS011;7842;50.904;6.670;2023-05-23T11:35:04;9.25;;;6.05;;
15480;SDS011;7842;50.904;6.670;2023-05-23T11:37:31;9.07;;;6.07;;
15480;SDS011;7842;50.904;6.670;2023-05-23T11:39:57;9.70;;;6.57;;
15480;SDS011;7842;50.904;6.670;2023-05-23T11:42:23;9.05;;;6.43;;
15480;SDS011;7842;50.904;6.670;2023-05-23T11:44:50;9.48;;;7.03;;
15480;SDS011;7842;50.904;6.670;2023-05-23T11:47:16;8.60;;;5.82;;
15480;SDS011;7842;50.904;6.670;2023-05-23T11:49:43;8.90;;;5.95;;
15480;SDS011;7842;50.904;6.670;2023-05-23T11:52:13;7.82;;;6.00;;
15480;SDS011;7842;50.904;6.670;2023-05-23T11:54:39;9.05;;;6.72;;
15480;SDS011;7842;50.904;6.670;2023-05-23T11:57:09;8.77;;;6.15;;
15480;SDS011;7842;50.904;6.670;2023-05-23T11:59:35;9.40;;;6.17;;
15480;SDS011;7842;50.904;6.670;2023-05-23T12:02:02;10.32;;;6.68;;
15480;SDS011;7842;50.904;6.670;2023-05-23T12:04:29;8.55;;;6.25;;
15480;SDS011;7842;50.904;6.670;2023-05-23T12:06:55;9.68;;;6.75;;
15480;SDS011;7842;50.904;6.670;2023-05-23T12:09:21;11.30;;;6.20;;
15480;SDS011;7842;50.904;6.670;2023-05-23T12:11:47;8.93;;;6.17;;
15480;SDS011;7842;50.904;6.670;2023-05-23T12:14:14;10.07;;;6.40;;
15480;SDS011;7842;50.904;6.670;2023-05-23T12:16:42;10.07;;;6.60;;
15480;SDS011;7842;50.904;6.670;2023-05-23T12:19:09;10.25;;;6.60;;
15480;SDS011;7842;50.904;6.670;2023-05-23T12:21:42;9.48;;;6.53;;
15480;SDS011;7842;50.904;6.670;2023-05-23T12:24:19;10.20;;;6.70;;
15480;SDS011;7842;50.904;6.670;2023-05-23T12:29:12;10.48;;;6.20;;
15480;SDS011;7842;50.904;6.670;2023-05-23T12:31:38;9.40;;;6.50;;
15480;SDS011;7842;50.904;6.670;2023-05-23T12:34:04;11.70;;;6.88;;
15480;SDS011;7842;50.904;6.670;2023-05-23T12:36:30;9.48;;;6.80;;
15480;SDS011;7842;50.904;6.670;2023-05-23T12:39:02;11.00;;;6.75;;
15480;SDS011;7842;50.904;6.670;2023-05-23T12:41:28;10.20;;;6.68;;
15480;SDS011;7842;50.904;6.670;2023-05-23T12:43:54;9.27;;;6.00;;
15480;SDS011;7842;50.904;6.670;2023-05-23T12:46:21;8.88;;;5.88;;
15480;SDS011;7842;50.904;6.670;2023-05-23T12:48:48;8.93;;;5.57;;
15480;SDS011;7842;50.904;6.670;2023-05-23T12:51:14;9.98;;;5.80;;
15480;SDS011;7842;50.904;6.670;2023-05-23T12:53:40;7.25;;;4.75;;
15480;SDS011;7842;50.904;6.670;2023-05-23T12:56:06;10.20;;;4.65;;
15480;SDS011;7842;50.904;6.670;2023-05-23T12:58:32;7.72;;;4.35;;
15480;SDS011;7842;50.904;6.670;2023-05-23T13:00:59;7.07;;;4.20;;
15480;SDS011;7842;50.904;6.670;2023-05-23T13:03:26;7.05;;;4.13;;
15480;SDS011;7842;50.904;6.670;2023-05-23T13:05:55;6.47;;;3.75;;
15480;SDS011;7842;50.904;6.670;2023-05-23T13:08:21;7.57;;;4.22;;
15480;SDS011;7842;50.904;6.670;2023-05-23T13:10:47;6.70;;;3.80;;
15480;SDS011;7842;50.904;6.670;2023-05-23T13:13:13;7.17;;;4.30;;
15480;SDS011;7842;50.904;6.670;2023-05-23T13:15:39;7.90;;;4.38;;
15480;SDS011;7842;50.904;6.670;2023-05-23T13:18:05;5.93;;;3.80;;
15480;SDS011;7842;50.904;6.670;2023-05-23T13:20:30;6.80;;;3.80;;
15480;SDS011;7842;50.904;6.670;2023-05-23T13:22:58;6.30;;;3.35;;
15480;SDS011;7842;50.904;6.670;2023-05-23T13:25:25;6.38;;;3.90;;
15480;SDS011;7842;50.904;6.670;2023-05-23T13:27:51;7.95;;;4.10;;
15480;SDS011;7842;50.904;6.670;2023-05-23T13:30:17;8.18;;;3.92;;
15480;SDS011;7842;50.904;6.670;2023-05-23T13:32:43;7.03;;;3.78;;
15480;SDS011;7842;50.904;6.670;2023-05-23T13:35:09;6.27;;;3.90;;
15480;SDS011;7842;50.904;6.670;2023-05-23T13:37:35;8.60;;;4.03;;
15480;SDS011;7842;50.904;6.670;2023-05-23T13:40:01;7.05;;;3.78;;
15480;SDS011;7842;50.904;6.670;2023-05-23T13:42:27;6.47;;;3.70;;
15480;SDS011;7842;50.904;6.670;2023-05-23T13:44:53;9.63;;;4.40;;
15480;SDS011;7842;50.904;6.670;2023-05-23T13:47:19;6.45;;;3.92;;
15480;SDS011;7842;50.904;6.670;2023-05-23T13:49:45;7.33;;;4.10;;
15480;SDS011;7842;50.904;6.670;2023-05-23T13:52:11;8.77;;;4.30;;
15480;SDS011;7842;50.904;6.670;2023-05-23T13:54:37;9.93;;;4.87;;
15480;SDS011;7842;50.904;6.670;2023-05-23T13:57:03;9.77;;;4.45;;
15480;SDS011;7842;50.904;6.670;2023-05-23T13:59:29;10.13;;;4.57;;
15480;SDS011;7842;50.904;6.670;2023-05-23T14:01:55;8.65;;;4.30;;
15480;SDS011;7842;50.904;6.670;2023-05-23T14:04:21;8.77;;;4.40;;
15480;SDS011;7842;50.904;6.670;2023-05-23T14:06:47;9.27;;;4.55;;
15480;SDS011;7842;50.904;6.670;2023-05-23T14:09:13;8.20;;;4.22;;
15480;SDS011;7842;50.904;6.670;2023-05-23T14:11:39;8.68;;;4.50;;
15480;SDS011;7842;50.904;6.670;2023-05-23T14:14:05;11.52;;;4.55;;
15480;SDS011;7842;50.904;6.670;2023-05-23T14:16:31;8.82;;;4.32;;
15480;SDS011;7842;50.904;6.670;2023-05-23T14:18:56;10.57;;;4.63;;
15480;SDS011;7842;50.904;6.670;2023-05-23T14:21:22;10.23;;;4.32;;
15480;SDS011;7842;50.904;6.670;2023-05-23T14:23:48;9.77;;;4.15;;
15480;SDS011;7842;50.904;6.670;2023-05-23T14:26:13;8.70;;;4.33;;
15480;SDS011;7842;50.904;6.670;2023-05-23T14:28:40;7.97;;;3.70;;
15480;SDS011;7842;50.904;6.670;2023-05-23T14:31:05;9.23;;;3.87;;
15480;SDS011;7842;50.904;6.670;2023-05-23T14:33:31;7.75;;;3.88;;
15480;SDS011;7842;50.904;6.670;2023-05-23T14:35:58;7.40;;;3.95;;
15480;SDS011;7842;50.904;6.670;2023-05-23T14:38:24;8.73;;;4.22;;
15480;SDS011;7842;50.904;6.670;2023-05-23T14:40:49;9.77;;;4.33;;
15480;SDS011;7842;50.904;6.670;2023-05-23T14:43:16;9.30;;;4.30;;
15480;SDS011;7842;50.904;6.670;2023-05-23T14:45:41;8.10;;;3.58;;
15480;SDS011;7842;50.904;6.670;2023-05-23T14:48:08;8.83;;;4.40;;
15480;SDS011;7842;50.904;6.670;2023-05-23T14:50:34;10.43;;;4.50;;
15480;SDS011;7842;50.904;6.670;2023-05-23T14:53:00;9.07;;;4.30;;
15480;SDS011;7842;50.904;6.670;2023-05-23T14:55:26;11.10;;;4.77;;
15480;SDS011;7842;50.904;6.670;2023-05-23T14:57:51;10.27;;;4.43;;
15480;SDS011;7842;50.904;6.670;2023-05-23T15:00:17;9.02;;;4.00;;
15480;SDS011;7842;50.904;6.670;2023-05-23T15:02:43;9.10;;;3.80;;
15480;SDS011;7842;50.904;6.670;2023-05-23T15:05:09;7.63;;;3.80;;
15480;SDS011;7842;50.904;6.670;2023-05-23T15:07:36;8.88;;;4.10;;
15480;SDS011;7842;50.904;6.670;2023-05-23T15:10:03;9.38;;;4.18;;
15480;SDS011;7842;50.904;6.670;2023-05-23T15:12:30;8.70;;;3.90;;
15480;SDS011;7842;50.904;6.670;2023-05-23T15:14:55;9.73;;;4.17;;
15480;SDS011;7842;50.904;6.670;2023-05-23T15:17:27;9.77;;;4.05;;